createdAt,value
2018-01-26T00:01:09.683Z,1.97
2018-01-26T00:03:35.998Z,1.73
2018-01-26T00:06:02.529Z,1.70
2018-01-26T00:08:28.820Z,2.00
2018-01-26T00:10:55.181Z,1.70
2018-01-26T00:13:21.586Z,1.30
2018-01-26T00:15:47.816Z,2.27
2018-01-26T00:18:14.080Z,1.87
2018-01-26T00:20:40.671Z,1.80
2018-01-26T00:23:06.911Z,1.60
2018-01-26T00:25:33.132Z,2.13
2018-01-26T00:27:59.372Z,2.90
2018-01-26T00:30:25.592Z,1.87
2018-01-26T00:32:51.876Z,2.07
2018-01-26T00:35:18.113Z,1.70
2018-01-26T00:37:44.367Z,1.80
2018-01-26T00:40:10.948Z,1.80
2018-01-26T00:42:37.417Z,1.70
2018-01-26T00:45:03.657Z,1.40
2018-01-26T00:47:29.938Z,1.23
2018-01-26T00:49:56.145Z,1.40
2018-01-26T00:52:22.446Z,1.50
2018-01-26T00:54:48.749Z,1.60
2018-01-26T00:57:14.998Z,1.90
2018-01-26T00:59:41.282Z,1.40
2018-01-26T01:02:07.528Z,1.87
2018-01-26T01:04:34.051Z,1.63
2018-01-26T01:07:00.248Z,1.70
2018-01-26T01:09:26.515Z,1.63
2018-01-26T01:11:52.747Z,1.50
2018-01-26T01:14:19.057Z,2.13
2018-01-26T01:16:45.600Z,1.53
2018-01-26T01:19:11.870Z,1.90
2018-01-26T01:21:38.090Z,1.40
2018-01-26T01:24:04.334Z,1.67
2018-01-26T01:26:30.559Z,1.43
2018-01-26T01:28:57.258Z,1.50
2018-01-26T01:31:23.566Z,1.43
2018-01-26T01:33:49.770Z,1.63
2018-01-26T01:36:16.020Z,1.80
2018-01-26T01:38:42.234Z,1.57
2018-01-26T01:41:08.436Z,1.57
2018-01-26T01:43:34.697Z,1.40
2018-01-26T01:46:00.891Z,1.90
2018-01-26T01:48:27.083Z,1.83
2018-01-26T01:50:53.317Z,2.00
2018-01-26T01:53:19.766Z,1.50
2018-01-26T01:55:45.991Z,1.50
2018-01-26T01:58:12.251Z,1.40
2018-01-26T02:00:38.741Z,2.27
2018-01-26T02:03:04.964Z,1.73
2018-01-26T02:05:31.601Z,1.57
2018-01-26T02:07:57.803Z,1.60
2018-01-26T02:10:24.011Z,1.80
2018-01-26T02:12:50.264Z,1.40
2018-01-26T02:22:13.940Z,1.70
2018-01-26T02:24:40.528Z,1.77
2018-01-26T02:27:06.732Z,1.40
2018-01-26T02:29:32.932Z,1.50
2018-01-26T02:31:59.694Z,1.27
2018-01-26T02:34:26.161Z,2.07
2018-01-26T02:36:58.951Z,1.40
2018-01-26T02:39:25.374Z,1.90
2018-01-26T02:41:51.652Z,2.10
2018-01-26T02:44:18.003Z,1.43
2018-01-26T02:46:44.210Z,1.60
2018-01-26T02:49:10.408Z,1.40
2018-01-26T02:51:36.678Z,1.80
2018-01-26T02:54:02.883Z,1.67
2018-01-26T02:56:29.074Z,1.73
2018-01-26T02:58:55.346Z,1.60
2018-01-26T03:01:21.563Z,1.50
2018-01-26T03:03:48.087Z,1.53
2018-01-26T03:06:14.604Z,1.77
2018-01-26T03:08:40.818Z,1.73
2018-01-26T03:11:07.035Z,1.37
2018-01-26T03:13:33.282Z,1.60
2018-01-26T03:15:59.491Z,2.17
2018-01-26T03:18:25.743Z,1.80
2018-01-26T03:20:51.938Z,1.60
2018-01-26T03:23:18.128Z,1.70
2018-01-26T03:25:44.415Z,1.50
2018-01-26T03:28:10.621Z,1.47
2018-01-26T03:30:37.146Z,1.80
2018-01-26T03:33:03.483Z,1.40
2018-01-26T03:35:29.667Z,1.60
2018-01-26T03:37:55.873Z,1.63
2018-01-26T03:40:22.401Z,1.63
2018-01-26T03:42:48.795Z,1.50
2018-01-26T03:45:14.986Z,1.70
2018-01-26T03:50:13.039Z,1.30
2018-01-26T03:52:40.234Z,1.50
2018-01-26T03:55:06.497Z,1.30
2018-01-26T03:57:32.684Z,1.40
2018-01-26T03:59:58.890Z,1.40
2018-01-26T04:02:25.145Z,1.53
2018-01-26T04:04:51.383Z,1.47
2018-01-26T04:07:17.575Z,1.70
2018-01-26T04:09:43.847Z,1.40
2018-01-26T04:12:10.035Z,1.80
2018-01-26T04:14:36.234Z,1.80
2018-01-26T04:17:02.502Z,1.60
2018-01-26T04:19:28.710Z,1.23
2018-01-26T04:21:54.908Z,1.30
2018-01-26T04:24:21.152Z,1.50
2018-01-26T04:26:47.354Z,2.00
2018-01-26T04:29:13.592Z,1.80
2018-01-26T04:31:39.829Z,1.67
2018-01-26T04:34:06.035Z,1.63
2018-01-26T04:36:32.293Z,1.40
2018-01-26T04:38:58.479Z,1.50
2018-01-26T04:41:24.725Z,1.40
2018-01-26T04:43:51.001Z,1.40
2018-01-26T04:46:17.219Z,1.60
2018-01-26T04:48:43.434Z,1.47
2018-01-26T04:51:09.995Z,1.73
2018-01-26T04:53:36.251Z,1.40
2018-01-26T04:56:02.461Z,1.60
2018-01-26T04:58:28.749Z,1.60
2018-01-26T05:00:55.267Z,2.07
2018-01-26T05:03:21.479Z,1.33
2018-01-26T05:05:47.794Z,1.40
2018-01-26T05:08:13.986Z,1.80
2018-01-26T05:10:40.498Z,1.57
2018-01-26T05:13:06.707Z,1.30
2018-01-26T05:15:33.246Z,1.30
2018-01-26T05:17:59.530Z,1.77
2018-01-26T05:20:25.746Z,1.60
2018-01-26T05:22:51.959Z,2.43
2018-01-26T05:25:18.258Z,1.40
2018-01-26T05:27:44.492Z,1.53
2018-01-26T05:30:10.687Z,1.47
2018-01-26T05:32:36.976Z,1.30
2018-01-26T05:35:03.186Z,1.30
2018-01-26T05:37:29.387Z,1.60
2018-01-26T05:39:56.008Z,1.30
2018-01-26T05:42:22.254Z,1.90
2018-01-26T05:44:48.663Z,1.30
2018-01-26T05:47:15.180Z,1.30
2018-01-26T05:49:41.510Z,1.40
2018-01-26T05:52:07.714Z,1.70
2018-01-26T05:54:34.309Z,1.50
2018-01-26T05:57:00.613Z,1.30
2018-01-26T05:59:26.825Z,1.30
2018-01-26T06:01:53.095Z,1.37
2018-01-26T06:04:19.553Z,1.67
2018-01-26T06:06:45.750Z,1.13
2018-01-26T06:09:12.374Z,1.30
2018-01-26T06:11:38.583Z,1.37
2018-01-26T06:14:04.798Z,1.53
2018-01-26T06:16:31.047Z,1.40
2018-01-26T06:18:57.255Z,1.30
2018-01-26T06:21:23.460Z,1.50
2018-01-26T06:23:50.037Z,1.97
2018-01-26T06:26:16.297Z,1.90
2018-01-26T06:28:42.559Z,1.50
2018-01-26T06:31:08.878Z,1.87
2018-01-26T06:33:35.086Z,1.60
2018-01-26T06:36:01.288Z,2.00
2018-01-26T06:38:27.820Z,2.50
2018-01-26T06:40:54.038Z,1.50
2018-01-26T06:43:20.534Z,2.50
2018-01-26T06:45:46.820Z,1.77
2018-01-26T06:48:13.252Z,2.00
2018-01-26T06:50:39.530Z,2.47
2018-01-26T06:53:05.784Z,2.30
2018-01-26T06:55:31.994Z,1.83
2018-01-26T06:57:58.472Z,1.67
2018-01-26T07:00:24.713Z,2.33
2018-01-26T07:02:51.139Z,1.80
2018-01-26T07:05:17.772Z,2.10
2018-01-26T07:07:43.966Z,2.07
2018-01-26T07:10:10.236Z,1.47
2018-01-26T07:12:36.500Z,2.00
2018-01-26T07:15:02.708Z,1.90
2018-01-26T07:17:29.177Z,1.80
2018-01-26T07:19:55.436Z,1.90
2018-01-26T07:22:21.662Z,1.67
2018-01-26T07:24:47.970Z,1.93
2018-01-26T07:27:14.486Z,2.57
2018-01-26T07:29:40.674Z,2.27
2018-01-26T07:32:07.035Z,2.50
2018-01-26T07:34:33.549Z,2.37
2018-01-26T07:36:59.752Z,2.10
2018-01-26T07:39:25.973Z,2.23
2018-01-26T07:41:52.241Z,2.40
2018-01-26T07:44:18.475Z,2.07
2018-01-26T07:46:45.025Z,1.90
2018-01-26T07:49:11.308Z,2.00
2018-01-26T07:51:37.757Z,2.50
2018-01-26T07:54:04.029Z,2.20
2018-01-26T07:56:30.269Z,2.17
2018-01-26T07:58:56.477Z,2.10
2018-01-26T08:01:22.991Z,2.47
2018-01-26T08:03:49.461Z,1.83
2018-01-26T08:06:15.708Z,2.00
2018-01-26T08:08:42.259Z,1.70
2018-01-26T08:11:08.561Z,1.77
2018-01-26T08:13:34.794Z,2.03
2018-01-26T08:16:01.402Z,2.03
2018-01-26T08:18:27.643Z,2.00
2018-01-26T08:20:53.834Z,2.67
2018-01-26T08:23:20.108Z,2.10
2018-01-26T08:25:46.334Z,1.87
2018-01-26T08:28:12.854Z,2.47
2018-01-26T08:30:39.104Z,1.73
2018-01-26T08:33:05.314Z,2.27
2018-01-26T08:35:31.534Z,1.80
2018-01-26T08:37:57.774Z,2.40
2018-01-26T08:40:23.998Z,1.77
2018-01-26T08:42:50.264Z,2.00
2018-01-26T08:45:16.489Z,2.43
2018-01-26T08:47:42.711Z,2.10
2018-01-26T08:50:08.984Z,1.50
2018-01-26T08:52:35.310Z,2.40
2018-01-26T08:55:01.564Z,2.00
2018-01-26T08:57:27.817Z,1.90
2018-01-26T08:59:54.024Z,1.83
2018-01-26T09:02:20.506Z,1.87
2018-01-26T09:04:47.046Z,1.60
2018-01-26T09:07:13.571Z,2.00
2018-01-26T09:09:39.794Z,2.47
2018-01-26T09:12:06.698Z,2.07
2018-01-26T09:14:32.897Z,3.17
2018-01-26T09:16:59.122Z,3.40
2018-01-26T09:19:25.381Z,2.10
2018-01-26T09:21:51.647Z,2.47
2018-01-26T09:24:17.875Z,2.03
2018-01-26T09:26:44.188Z,1.87
2018-01-26T09:29:10.418Z,2.30
2018-01-26T09:31:36.630Z,1.73
2018-01-26T09:34:02.886Z,2.27
2018-01-26T09:36:29.084Z,1.90
2018-01-26T09:38:55.299Z,1.97
2018-01-26T09:41:21.554Z,1.70
2018-01-26T09:43:47.755Z,1.77
2018-01-26T09:46:13.963Z,2.53
2018-01-26T09:48:40.348Z,1.80
2018-01-26T09:51:06.541Z,1.73
2018-01-26T09:53:32.737Z,2.27
2018-01-26T09:55:58.993Z,2.00
2018-01-26T09:58:25.212Z,2.07
2018-01-26T10:00:51.398Z,1.90
2018-01-26T10:03:17.648Z,2.00
2018-01-26T10:05:44.068Z,2.20
2018-01-26T10:08:10.276Z,2.27
2018-01-26T10:10:36.832Z,2.23
2018-01-26T10:13:03.053Z,2.33
2018-01-26T10:15:29.509Z,1.80
2018-01-26T10:17:56.091Z,1.83
2018-01-26T10:20:22.278Z,2.37
2018-01-26T10:22:48.696Z,2.80
2018-01-26T10:25:15.236Z,1.70
2018-01-26T10:27:41.413Z,2.17
2018-01-26T10:30:07.601Z,1.80
2018-01-26T10:32:33.856Z,2.50
2018-01-26T10:35:00.048Z,2.87
2018-01-26T10:37:26.246Z,1.80
2018-01-26T10:39:52.447Z,2.13
2018-01-26T10:42:18.903Z,2.00
2018-01-26T10:44:45.180Z,2.30
2018-01-26T10:47:11.440Z,2.00
2018-01-26T10:49:37.633Z,2.10
2018-01-26T10:52:03.841Z,2.07
2018-01-26T10:54:30.079Z,1.80
2018-01-26T10:56:56.274Z,1.80
2018-01-26T10:59:22.438Z,2.47
2018-01-26T11:01:48.688Z,2.40
2018-01-26T11:04:14.867Z,2.03
2018-01-26T11:06:41.371Z,2.40
2018-01-26T11:09:07.644Z,2.70
2018-01-26T11:11:34.061Z,2.23
2018-01-26T11:14:00.245Z,1.83
2018-01-26T11:16:26.487Z,2.00
2018-01-26T11:18:52.670Z,2.30
2018-01-26T11:21:18.862Z,2.13
2018-01-26T11:23:45.104Z,2.03
2018-01-26T11:26:11.376Z,2.40
2018-01-26T11:28:37.539Z,2.27
2018-01-26T11:31:04.124Z,2.40
2018-01-26T11:33:30.555Z,2.37
2018-01-26T11:35:56.782Z,2.00
2018-01-26T11:38:23.023Z,2.20
2018-01-26T11:40:49.219Z,2.20
2018-01-26T11:43:15.427Z,1.90
2018-01-26T11:45:41.693Z,2.13
2018-01-26T11:48:08.116Z,1.97
2018-01-26T11:50:34.330Z,2.40
2018-01-26T11:53:01.035Z,2.20
2018-01-26T11:55:27.223Z,2.67
2018-01-26T11:57:53.436Z,2.27
2018-01-26T12:00:20.337Z,2.47
2018-01-26T12:02:46.540Z,1.90
2018-01-26T12:05:12.982Z,2.17
2018-01-26T12:07:39.242Z,2.10
2018-01-26T12:10:05.709Z,2.10
2018-01-26T12:12:31.897Z,1.90
2018-01-26T12:14:58.421Z,2.50
2018-01-26T12:17:24.629Z,2.10
2018-01-26T12:19:50.863Z,2.17
2018-01-26T12:22:17.171Z,2.40
2018-01-26T12:24:43.516Z,2.10
2018-01-26T12:27:10.008Z,2.40
2018-01-26T12:29:36.290Z,2.30
2018-01-26T12:32:02.732Z,1.90
2018-01-26T12:34:28.974Z,2.53
2018-01-26T12:36:55.224Z,2.30
2018-01-26T12:39:21.432Z,2.30
2018-01-26T12:41:47.857Z,2.47
2018-01-26T12:44:14.351Z,2.00
2018-01-26T12:46:40.549Z,3.03
2018-01-26T12:49:06.747Z,2.03
2018-01-26T12:51:33.317Z,2.40
2018-01-26T12:53:59.753Z,1.87
2018-01-26T12:56:26.238Z,2.27
2018-01-26T12:58:52.772Z,2.20
2018-01-26T13:01:19.076Z,1.80
2018-01-26T13:03:45.578Z,2.57
2018-01-26T13:06:11.767Z,2.00
2018-01-26T13:08:38.213Z,2.30
2018-01-26T13:11:04.525Z,2.50
2018-01-26T13:13:31.066Z,2.30
2018-01-26T13:15:57.739Z,2.07
2018-01-26T13:18:23.907Z,2.30
2018-01-26T13:20:50.362Z,2.10
2018-01-26T13:23:16.602Z,2.80
2018-01-26T13:25:43.023Z,2.07
2018-01-26T13:28:09.565Z,2.30
2018-01-26T13:30:35.810Z,2.00
2018-01-26T13:33:02.000Z,3.50
2018-01-26T13:35:28.229Z,2.40
2018-01-26T13:37:54.433Z,2.87
2018-01-26T13:40:26.628Z,2.83
2018-01-26T13:42:53.480Z,3.10
2018-01-26T13:45:19.721Z,2.83
2018-01-26T13:47:45.895Z,3.07
2018-01-26T13:50:12.157Z,3.27
2018-01-26T13:52:38.367Z,3.20
2018-01-26T13:55:04.650Z,3.10
2018-01-26T13:57:30.885Z,3.40
2018-01-26T13:59:57.121Z,4.40
2018-01-26T14:02:23.379Z,4.50
2018-01-26T14:04:49.571Z,4.73
2018-01-26T14:07:15.774Z,3.60
2018-01-26T14:09:42.295Z,4.23
2018-01-26T14:12:08.574Z,4.20
2018-01-26T14:14:34.827Z,3.50
2018-01-26T14:17:01.032Z,4.10
2018-01-26T14:19:27.222Z,4.90
2018-01-26T14:21:53.801Z,4.60
2018-01-26T14:24:19.990Z,4.23
2018-01-26T14:26:46.188Z,4.00
2018-01-26T14:29:12.636Z,3.67
2018-01-26T14:31:38.826Z,4.33
2018-01-26T14:34:05.083Z,4.20
2018-01-26T14:36:31.267Z,4.33
2018-01-26T14:38:57.759Z,3.80
2018-01-26T14:41:24.011Z,3.07
2018-01-26T14:43:50.212Z,3.70
2018-01-26T14:46:16.383Z,4.10
2018-01-26T14:48:42.638Z,3.80
2018-01-26T14:51:08.916Z,2.97
2018-01-26T14:53:35.354Z,3.33
2018-01-26T14:56:01.630Z,3.60
2018-01-26T14:58:27.798Z,4.00
2018-01-26T15:00:53.993Z,2.97
2018-01-26T15:03:20.267Z,3.83
2018-01-26T15:05:46.463Z,3.40
2018-01-26T15:08:12.900Z,3.30
2018-01-26T15:10:39.098Z,3.03
2018-01-26T15:13:05.314Z,3.23
2018-01-26T15:15:31.568Z,3.30
2018-01-26T15:17:58.015Z,2.90
2018-01-26T15:20:24.199Z,3.10
2018-01-26T15:22:50.428Z,3.60
2018-01-26T15:25:16.628Z,3.40
2018-01-26T15:27:42.834Z,3.13
2018-01-26T15:30:09.071Z,2.87
2018-01-26T15:32:35.270Z,4.00
2018-01-26T15:35:01.473Z,3.33
2018-01-26T15:37:27.736Z,3.00
2018-01-26T15:39:54.012Z,3.20
2018-01-26T15:42:20.195Z,3.80
2018-01-26T15:44:46.438Z,3.10
2018-01-26T15:47:12.626Z,3.70
2018-01-26T15:49:38.815Z,3.53
2018-01-26T15:52:05.617Z,3.10
2018-01-26T15:54:32.023Z,3.23
2018-01-26T15:56:58.196Z,3.50
2018-01-26T15:59:24.426Z,4.13
2018-01-26T16:01:50.605Z,2.90
2018-01-26T16:04:16.793Z,3.10
2018-01-26T16:06:43.032Z,2.60
2018-01-26T16:09:09.295Z,3.30
2018-01-26T16:11:35.728Z,3.43
2018-01-26T16:14:02.595Z,3.23
2018-01-26T16:16:28.810Z,3.33
2018-01-26T16:18:55.002Z,3.80
2018-01-26T16:21:21.214Z,3.27
2018-01-26T16:23:47.467Z,3.83
2018-01-26T16:26:13.638Z,3.10
2018-01-26T16:28:39.822Z,2.80
2018-01-26T16:31:06.426Z,3.10
2018-01-26T16:33:32.626Z,3.67
2018-01-26T16:35:58.818Z,2.90
2018-01-26T16:38:25.058Z,3.40
2018-01-26T16:40:51.254Z,2.90
2018-01-26T16:43:17.804Z,3.73
2018-01-26T16:45:43.987Z,2.70
2018-01-26T16:48:10.160Z,3.30
2018-01-26T16:50:36.679Z,3.20
2018-01-26T16:53:03.122Z,2.70
2018-01-26T16:55:29.348Z,2.70
2018-01-26T16:57:55.625Z,3.53
2018-01-26T17:00:21.810Z,2.90
2018-01-26T17:02:48.007Z,3.30
2018-01-26T17:05:14.616Z,2.90
2018-01-26T17:07:40.788Z,2.80
2018-01-26T17:10:07.062Z,3.30
2018-01-26T17:12:33.561Z,2.73
2018-01-26T17:14:59.750Z,2.97
2018-01-26T17:17:25.976Z,3.67
2018-01-26T17:19:52.222Z,3.13
2018-01-26T17:22:18.397Z,2.80
2018-01-26T17:24:44.579Z,2.53
2018-01-26T17:27:10.786Z,2.60
2018-01-26T17:29:37.407Z,2.90
2018-01-26T17:32:04.105Z,3.37
2018-01-26T17:34:30.353Z,2.93
2018-01-26T17:36:56.540Z,3.00
2018-01-26T17:39:23.087Z,2.50
2018-01-26T17:41:49.282Z,2.60
2018-01-26T17:44:15.460Z,3.50
2018-01-26T17:46:41.978Z,2.80
2018-01-26T17:49:08.458Z,3.00
2018-01-26T17:51:34.651Z,3.20
2018-01-26T17:54:00.918Z,2.57
2018-01-26T17:56:27.110Z,2.60
2018-01-26T17:58:53.279Z,2.47
2018-01-26T18:01:19.487Z,2.73
2018-01-26T18:03:45.674Z,3.10
2018-01-26T18:06:11.935Z,3.30
2018-01-26T18:08:38.490Z,2.87
2018-01-26T18:11:04.916Z,2.80
2018-01-26T18:13:37.422Z,3.07
2018-01-26T18:16:03.667Z,3.17
2018-01-26T18:18:29.860Z,3.00
2018-01-26T18:20:56.971Z,3.70
2018-01-26T18:23:23.164Z,2.77
2018-01-26T18:25:49.343Z,3.07
2018-01-26T18:28:15.902Z,3.47
2018-01-26T18:30:42.094Z,2.97
2018-01-26T18:33:08.365Z,2.97
2018-01-26T18:35:34.557Z,2.97
2018-01-26T18:38:00.773Z,3.77
2018-01-26T18:40:27.230Z,3.90
2018-01-26T18:42:53.427Z,2.90
2018-01-26T18:45:19.901Z,3.60
2018-01-26T18:47:46.107Z,3.30
2018-01-26T18:50:12.305Z,3.10
2018-01-26T18:52:38.649Z,2.93
2018-01-26T18:55:04.840Z,3.30
2018-01-26T18:57:31.030Z,3.20
2018-01-26T18:59:57.274Z,2.93
2018-01-26T19:02:23.466Z,3.17
2018-01-26T19:04:49.714Z,2.60
2018-01-26T19:07:15.988Z,2.93
2018-01-26T19:09:42.180Z,2.70
2018-01-26T19:12:08.367Z,3.20
2018-01-26T19:14:34.621Z,3.10
2018-01-26T19:17:00.813Z,3.43
2018-01-26T19:19:27.030Z,2.73
2018-01-26T19:21:53.274Z,2.80
2018-01-26T19:24:19.451Z,3.20
2018-01-26T19:26:45.641Z,3.17
2018-01-26T19:29:11.896Z,3.37
2018-01-26T19:31:38.087Z,2.67
2018-01-26T19:34:04.363Z,2.97
2018-01-26T19:36:30.608Z,2.90
2018-01-26T19:38:56.782Z,2.90
2018-01-26T19:41:22.961Z,3.67
2018-01-26T19:43:49.642Z,2.40
2018-01-26T19:46:15.879Z,3.10
2018-01-26T19:48:42.061Z,3.23
2018-01-26T19:51:08.554Z,2.60
2018-01-26T19:53:34.753Z,3.80
2018-01-26T19:56:00.924Z,2.67
2018-01-26T19:58:27.457Z,3.07
2018-01-26T20:00:53.999Z,2.83
2018-01-26T20:03:31.600Z,3.00
2018-01-26T20:06:03.880Z,2.70
2018-01-26T20:08:36.080Z,2.97
2018-01-26T20:11:02.310Z,2.93
2018-01-26T20:13:28.747Z,3.10
2018-01-26T20:16:00.217Z,3.30
2018-01-26T20:18:26.398Z,2.70
2018-01-26T20:20:53.662Z,2.67
2018-01-26T20:23:19.885Z,2.50
2018-01-26T20:25:46.058Z,2.50
2018-01-26T20:28:12.331Z,2.93
2018-01-26T20:30:38.730Z,2.80
2018-01-26T20:33:05.172Z,2.50
2018-01-26T20:35:31.434Z,3.17
2018-01-26T20:37:57.603Z,2.80
2018-01-26T20:40:23.903Z,2.63
2018-01-26T20:42:50.154Z,3.10
2018-01-26T20:45:16.581Z,3.17
2018-01-26T20:47:42.784Z,2.90
2018-01-26T20:50:09.015Z,2.47
2018-01-26T20:52:35.218Z,3.17
2018-01-26T20:55:01.667Z,2.60
2018-01-26T20:57:28.137Z,2.67
2018-01-26T20:59:54.320Z,3.10
2018-01-26T21:02:20.736Z,2.73
2018-01-26T21:04:46.961Z,2.40
2018-01-26T21:07:13.252Z,2.40
2018-01-26T21:09:39.456Z,2.77
2018-01-26T21:12:05.699Z,2.40
2018-01-26T21:14:31.905Z,2.80
2018-01-26T21:16:58.096Z,2.93
2018-01-26T21:19:24.346Z,2.90
2018-01-26T21:21:50.574Z,3.03
2018-01-26T21:24:16.750Z,2.77
2018-01-26T21:26:42.981Z,2.83
2018-01-26T21:29:09.161Z,2.90
2018-01-26T21:31:35.339Z,2.53
2018-01-26T21:34:01.556Z,3.00
2018-01-26T21:36:27.746Z,3.00
2018-01-26T21:38:54.013Z,2.50
2018-01-26T21:41:20.201Z,2.70
2018-01-26T21:43:46.376Z,2.70
2018-01-26T21:46:12.940Z,2.40
2018-01-26T21:48:39.119Z,2.97
2018-01-26T21:51:05.337Z,2.40
2018-01-26T21:53:31.540Z,2.60
2018-01-26T21:55:57.732Z,2.67
2018-01-26T21:58:24.328Z,2.53
2018-01-26T22:00:50.512Z,2.87
2018-01-26T22:03:16.756Z,2.87
2018-01-26T22:05:43.008Z,2.60
2018-01-26T22:08:09.255Z,3.10
2018-01-26T22:10:35.430Z,2.50
2018-01-26T22:13:01.891Z,2.80
2018-01-26T22:15:28.113Z,2.63
2018-01-26T22:17:54.331Z,2.73
2018-01-26T22:20:20.545Z,2.50
2018-01-26T22:22:46.760Z,2.50
2018-01-26T22:25:13.016Z,2.57
2018-01-26T22:27:39.545Z,2.33
2018-01-26T22:30:05.730Z,2.87
2018-01-26T22:32:31.958Z,2.53
2018-01-26T22:34:58.143Z,2.10
2018-01-26T22:37:24.317Z,2.37
2018-01-26T22:39:50.797Z,2.60
2018-01-26T22:42:16.978Z,2.60
2018-01-26T22:44:43.166Z,1.97
2018-01-26T22:47:10.073Z,2.73
2018-01-26T22:49:36.611Z,2.67
2018-01-26T22:52:03.023Z,2.90
2018-01-26T22:54:29.279Z,2.50
2018-01-26T22:56:55.682Z,2.10
2018-01-26T22:59:21.889Z,2.93
2018-01-26T23:01:48.136Z,2.50
2018-01-26T23:04:14.330Z,2.50
2018-01-26T23:06:40.561Z,2.80
2018-01-26T23:09:07.096Z,3.07
2018-01-26T23:11:33.277Z,2.87
2018-01-26T23:13:59.462Z,2.50
2018-01-26T23:16:25.713Z,2.63
2018-01-26T23:18:52.164Z,2.47
2018-01-26T23:21:18.433Z,2.60
2018-01-26T23:23:44.716Z,3.43
2018-01-26T23:26:11.261Z,3.00
2018-01-26T23:28:37.518Z,3.20
2018-01-26T23:31:03.747Z,2.47
2018-01-26T23:33:29.944Z,2.77
2018-01-26T23:35:56.117Z,2.40
2018-01-26T23:38:22.378Z,2.63
2018-01-26T23:40:48.568Z,2.57
2018-01-26T23:43:14.742Z,2.83
2018-01-26T23:45:40.986Z,2.80
2018-01-26T23:48:07.187Z,2.30
2018-01-26T23:50:33.379Z,2.37
2018-01-26T23:52:59.639Z,2.40
2018-01-26T23:55:25.824Z,2.90
2018-01-26T23:57:52.026Z,2.40
